Date,TemperatureHighF,TemperatureAvgF,TemperatureLowF,DewpointHighF,DewpointAvgF,DewpointLowF,HumidityHigh,HumidityAvg,HumidityLow,PressureMaxIn,PressureMinIn,WindSpeedMaxMPH,WindSpeedAvgMPH,GustSpeedMaxMPH,PrecipitationSumIn
2013-1-1,17,5,-9,16,2,-13,93,88,84,0.00,40.00,17,11,21,0.00
2013-1-2,28,15,4,23,12,1,92,86,77,0.00,40.00,28,17,34,0.00
2013-1-3,23,13,2,18,9,-2,86,82,72,0.00,40.00,19,4,24,0.00
2013-1-4,28,19,7,19,14,3,93,80,68,0.00,40.00,11,5,14,0.00
2013-1-5,17,9,1,14,6,-2,92,86,78,0.00,40.00,26,9,31,0.00
2013-1-6,18,15,10,16,13,9,92,90,87,0.00,40.00,24,11,29,0.00
2013-1-7,36,26,15,23,19,12,88,76,60,0.00,40.00,27,14,39,0.00
2013-1-8,34,23,10,30,20,9,97,90,65,0.00,40.00,32,13,38,0.00
2013-1-9,32,25,20,25,18,14,85,76,60,0.00,40.00,29,16,38,0.00
2013-1-10,41,34,24,34,27,18,98,74,61,0.00,40.00,29,21,39,0.00
2013-1-11,34,18,9,34,17,7,98,94,88,0.00,40.00,16,13,19,0.13
2013-1-12,9,0,-3,7,-2,-8,90,86,84,0.00,40.00,16,12,20,0.15
2013-1-13,5,-1,-8,1,-4,-13,87,85,83,0.00,40.00,7,3,9,0.00
2013-1-14,8,2,-4,5,-1,-8,88,86,84,0.00,40.00,12,8,17,0.00
2013-1-15,29,10,-1,27,8,-4,97,89,85,0.00,40.00,23,14,30,0.00
2013-1-16,34,7,-5,34,3,-11,99,83,66,0.00,40.00,34,18,39,0.00
2013-1-17,12,4,-3,3,-3,-9,83,73,64,0.00,40.00,14,7,18,0.00
2013-1-18,21,15,8,19,12,3,90,87,83,0.00,40.00,17,6,21,0.00
2013-1-19,26,7,-6,23,3,-11,90,84,76,0.00,40.00,37,20,48,0.00
2013-1-20,-1,-6,-13,-8,-12,-20,81,75,67,0.00,40.00,25,14,31,0.00
2013-1-21,-9,-13,-17,-17,-20,-24,71,69,66,0.00,40.00,16,11,21,0.00
2013-1-22,3,-7,-19,-2,-13,-24,78,74,65,0.00,40.00,9,6,12,0.00
2013-1-23,2,-7,-16,-2,-13,-22,86,75,66,0.00,40.00,29,16,34,0.00
2013-1-24,10,-5,-16,3,-12,-22,82,72,64,0.00,40.00,24,14,31,0.00
2013-1-25,12,0,-10,7,-5,-15,84,80,76,0.00,40.00,29,16,37,0.00
2013-1-26,14,4,-10,7,-2,-15,82,75,66,0.00,40.00,21,12,29,0.00
2013-1-27,27,15,5,18,9,1,87,79,62,0.00,40.00,10,6,12,0.00
2013-1-28,27,22,18,27,20,16,96,92,85,0.00,40.00,7,3,8,0.00
2013-1-29,23,19,11,21,16,5,96,89,78,0.00,40.00,28,15,34,0.00
2013-1-30,11,5,-3,7,1,-8,86,81,76,0.00,40.00,28,20,34,0.00
2013-1-31,-3,-11,-16,-8,-16,-22,82,76,70,0.00,40.00,29,18,35,0.00
2013-2-1,-2,-11,-19,-8,-16,-24,82,77,72,0.00,40.00,14,7,18,0.00
2013-2-2,6,-3,-13,1,-8,-17,84,81,76,0.00,40.00,15,7,20,0.00
2013-2-3,12,2,-6,0,-4,-11,85,75,57,0.00,40.00,11,4,13,0.00
2013-2-4,22,6,-2,18,2,-6,91,80,71,0.00,40.00,25,13,31,0.00
2013-2-5,25,7,0,23,3,-4,91,84,78,0.00,40.00,26,12,32,0.00
2013-2-6,19,15,8,16,12,3,89,86,83,0.00,40.00,15,10,18,0.00
2013-2-7,10,4,-3,7,2,-6,89,87,86,0.00,40.00,15,6,16,0.00
2013-2-8,24,16,6,19,12,3,92,86,70,0.00,40.00,19,10,26,0.00
2013-2-9,30,25,21,25,22,18,97,89,78,0.00,40.00,14,6,18,0.00
2013-2-10,29,27,23,28,26,21,98,96,90,0.00,40.00,32,16,37,0.11
2013-2-11,23,18,13,21,14,9,96,84,67,0.00,40.00,30,18,37,0.10
2013-2-12,32,22,11,25,17,9,89,80,67,0.00,40.00,18,9,22,0.00
2013-2-13,33,22,14,23,18,14,95,87,54,0.00,40.00,12,6,17,0.00
2013-2-14,21,11,3,19,7,0,92,81,74,0.00,40.00,21,13,23,0.00
2013-2-15,17,4,-7,9,0,-9,89,80,60,0.00,40.00,8,4,9,0.00
2013-2-16,17,6,-6,14,3,-9,88,86,82,0.00,40.00,21,10,26,0.00
2013-2-17,30,23,16,28,21,12,95,90,87,0.00,40.00,28,21,35,0.00
2013-2-18,30,9,-4,28,7,-8,97,91,87,0.00,40.00,44,31,57,0.06
2013-2-19,-4,-10,-15,-8,-13,-20,87,84,83,0.00,40.00,31,22,37,0.01
2013-2-20,9,-6,-18,7,-10,-22,91,85,82,0.00,40.00,11,4,12,0.00
2013-2-21,19,6,-8,16,3,-11,92,88,86,0.00,40.00,11,5,13,0.00
2013-2-22,17,10,0,16,8,-2,94,90,86,0.00,40.00,11,6,13,0.00
2013-2-23,18,16,11,18,14,10,95,94,93,0.00,40.00,11,5,14,0.00
2013-2-24,23,14,5,21,12,3,94,92,90,0.00,40.00,15,8,19,0.00
2013-2-25,26,17,6,23,15,5,95,91,87,0.00,40.00,21,11,25,0.00
2013-2-26,22,18,13,21,17,9,96,95,94,0.00,40.00,16,7,21,0.00
2013-2-27,26,18,7,23,16,5,94,91,87,0.00,40.00,26,13,31,0.00
2013-2-28,25,20,12,19,17,9,91,86,70,0.00,40.00,17,13,20,0.00
2013-3-1,29,14,4,21,10,1,92,82,55,0.00,40.00,11,5,12,0.00
2013-3-2,24,14,1,18,8,0,93,78,48,0.00,40.00,22,10,27,0.00
2013-3-3,31,24,12,21,15,7,80,67,54,0.00,40.00,20,10,26,0.00
2013-3-4,29,26,24,25,22,14,96,87,53,0.00,40.00,22,14,30,0.02
2013-3-5,25,22,18,23,19,16,96,90,81,0.00,40.00,21,14,24,0.01
2013-3-6,34,18,3,18,12,1,92,80,41,0.00,40.00,12,4,14,0.00
2013-3-7,29,16,-3,19,10,-4,91,81,65,0.00,40.00,20,9,25,0.00
2013-3-8,35,27,22,27,23,19,91,83,69,0.00,40.00,14,8,21,0.00
2013-3-9,27,25,22,27,23,19,95,89,76,0.00,40.00,31,15,35,0.00
2013-3-10,23,16,4,19,12,0,90,85,72,0.00,40.00,26,18,32,0.00
2013-3-11,33,15,1,16,8,-2,91,75,40,0.00,40.00,11,5,12,0.00
2013-3-12,22,17,5,18,14,1,93,88,83,0.00,40.00,26,16,30,0.00
2013-3-13,21,9,-4,18,5,-8,92,81,71,0.00,40.00,19,9,26,0.00
2013-3-14,34,22,11,23,19,10,97,89,58,0.00,40.00,24,8,28,0.00
2013-3-15,21,15,3,18,12,1,91,88,77,0.00,40.00,23,16,27,0.08
2013-3-16,11,0,-14,3,-5,-18,89,81,70,0.00,40.00,16,10,19,0.03
2013-3-17,20,2,-18,18,-2,-22,95,82,75,0.00,40.00,22,11,28,0.00
2013-3-18,24,16,6,23,14,1,97,93,83,0.00,40.00,34,21,42,0.06
2013-3-19,14,6,-1,1,-2,-8,82,68,54,0.00,40.00,19,16,24,0.01
2013-3-20,14,6,-3,3,-2,-9,78,70,60,0.00,40.00,20,14,24,0.00
2013-3-21,17,3,-10,9,-2,-13,89,79,64,0.00,40.00,9,5,9,0.00
2013-3-22,20,6,-8,12,1,-11,89,83,66,0.00,40.00,9,5,11,0.00
2013-3-23,27,16,3,19,12,0,92,83,69,0.00,40.00,9,7,10,0.00
2013-3-24,26,22,18,21,19,16,95,90,83,0.00,40.00,20,12,24,0.00
2013-3-25,26,21,12,19,17,9,90,85,73,0.00,40.00,19,15,22,0.00
2013-3-26,36,17,2,14,9,0,93,73,39,0.00,40.00,7,4,9,0.00
2013-3-27,37,15,-6,19,8,-8,93,76,41,0.00,40.00,7,-5,7,0.00
2013-3-28,39,26,7,28,21,5,96,78,64,0.00,40.00,12,6,14,0.00
2013-3-29,37,28,19,30,26,18,98,92,69,0.00,40.00,8,2,11,0.00
2013-3-30,40,34,29,36,29,-100,99,86,66,0.00,40.00,12,6,14,0.00
2013-3-31,34,24,15,30,18,10,90,77,65,0.00,40.00,29,20,37,0.00
2013-4-1,28,19,8,16,11,3,82,68,54,0.00,40.00,14,9,17,0.00
2013-4-2,33,21,11,19,14,9,89,75,52,0.00,40.00,7,4,10,0.00
2013-4-3,37,27,16,32,22,12,92,81,72,0.00,40.00,29,15,35,0.00
2013-4-4,35,28,19,28,22,16,87,78,69,0.00,40.00,24,15,30,0.00
2013-4-5,34,24,10,30,20,9,95,85,62,0.00,40.00,18,9,25,0.00
2013-4-6,39,33,28,32,30,27,95,90,74,0.00,40.00,18,10,21,0.00
2013-4-7,36,33,31,34,30,28,98,90,76,0.00,40.00,12,6,16,0.01
2013-4-8,32,24,16,32,20,9,98,83,71,0.00,40.00,29,21,34,0.01
2013-4-9,26,18,10,16,10,3,81,70,59,0.00,40.00,26,18,32,0.00
2013-4-10,34,25,17,27,20,14,91,81,69,0.00,40.00,19,11,21,0.00
2013-4-11,33,30,28,27,23,19,92,77,60,0.00,40.00,19,11,24,0.01
2013-4-12,32,30,28,28,27,25,97,90,79,0.00,40.00,17,12,21,0.01
2013-4-13,40,31,22,27,23,19,98,75,45,0.00,40.00,10,5,14,0.01
2013-4-14,38,29,21,32,23,19,98,78,57,0.00,40.00,26,16,34,0.01
2013-4-15,35,32,31,32,31,30,98,96,90,0.00,40.00,21,16,26,0.04
2013-4-16,36,32,29,30,28,27,95,88,75,0.00,40.00,15,10,19,0.01
2013-4-17,40,32,29,32,29,27,95,87,69,0.00,40.00,15,6,17,0.00
2013-4-18,36,32,29,32,27,23,97,82,60,0.00,40.00,30,20,37,0.00
2013-4-19,33,29,25,23,20,18,83,69,60,0.00,40.00,30,20,35,0.00
2013-4-20,37,29,17,25,19,14,89,68,46,0.00,40.00,15,7,20,0.00
2013-4-21,40,34,31,37,29,25,95,81,67,0.00,40.00,22,15,34,0.00
2013-4-22,33,30,27,27,23,18,87,75,58,0.00,40.00,21,14,26,0.00
2013-4-23,40,32,23,27,22,19,88,68,47,0.00,40.00,11,7,18,0.00
2013-4-24,41,33,27,34,29,27,97,85,66,0.00,40.00,21,10,24,0.00
2013-4-25,42,34,27,34,27,23,88,75,56,0.00,40.00,22,11,28,0.00
2013-4-26,63,48,34,46,39,30,94,72,42,0.00,40.00,16,8,21,0.00
2013-4-27,71,56,42,54,45,37,87,69,44,0.00,40.00,22,13,28,0.00
2013-4-28,61,54,45,52,43,30,89,69,44,0.00,40.00,23,14,30,0.00
2013-4-29,62,48,33,46,37,32,96,68,40,0.00,40.00,21,10,27,0.00
2013-4-30,53,47,32,48,40,23,97,76,55,0.00,40.00,32,18,37,0.01
2013-5-1,38,34,31,30,25,21,91,71,64,0.00,40.00,21,14,26,0.01
2013-5-2,36,32,29,30,27,23,94,82,71,0.00,40.00,16,9,19,0.00
2013-5-3,49,38,27,37,29,23,97,72,48,0.00,40.00,17,7,22,0.00
2013-5-4,51,42,33,39,32,28,92,71,52,0.00,40.00,16,10,23,0.00
2013-5-5,60,48,38,45,40,37,97,77,47,0.00,40.00,10,5,14,0.00
2013-5-6,72,56,37,46,39,32,98,59,24,0.00,40.00,9,4,12,0.00
2013-5-7,76,62,46,50,46,43,94,60,31,0.00,40.00,17,9,24,0.00
2013-5-8,67,56,45,48,44,32,91,63,43,0.00,40.00,26,16,30,0.00
2013-5-9,62,48,33,36,31,28,86,56,30,0.00,40.00,19,14,28,0.00
2013-5-10,68,48,34,43,32,-100,80,58,33,0.00,40.00,41,17,49,0.00
2013-5-11,49,41,32,36,26,-100,88,58,31,0.00,40.00,35,22,44,0.00
2013-5-12,63,45,26,32,24,18,91,48,24,0.00,40.00,12,4,18,0.00
2013-5-13,90,66,49,50,33,23,37,30,19,0.00,40.00,30,19,38,0.00
2013-5-14,78,66,53,59,46,30,94,50,29,0.00,40.00,36,17,48,0.00
2013-5-15,81,64,47,46,41,36,83,49,23,0.00,40.00,19,9,24,0.00
2013-5-16,78,54,42,55,27,-100,96,64,26,0.00,40.00,17,7,32,0.00
2013-5-17,75,62,53,54,44,-100,92,60,36,0.00,40.00,18,12,24,0.00
2013-5-18,70,62,56,63,57,54,97,84,70,0.00,40.00,16,8,19,0.00
2013-5-19,64,59,54,61,57,54,98,94,89,0.00,40.00,33,22,41,0.02
2013-5-20,56,54,52,55,53,50,97,94,91,0.00,40.00,31,23,39,0.03
2013-5-21,52,49,45,50,46,43,95,87,71,0.00,40.00,29,17,35,0.01
2013-5-22,72,58,42,45,40,34,90,54,28,0.00,40.00,23,13,34,0.00
2013-5-23,67,56,41,41,36,27,88,51,26,0.00,40.00,16,9,19,0.00
2013-5-24,70,56,46,50,38,32,92,52,26,0.00,40.00,25,13,31,0.00
2013-5-25,72,62,51,52,49,46,96,67,42,0.00,40.00,22,13,31,0.00
2013-5-26,63,59,54,50,47,43,77,64,51,0.00,40.00,21,13,26,0.00
2013-5-27,70,62,55,54,50,43,76,63,53,0.00,40.00,16,10,25,0.00
2013-5-28,74,64,58,59,55,52,89,74,54,0.00,40.00,19,13,26,0.00
2013-5-29,76,66,58,63,58,55,94,75,50,0.00,40.00,17,7,21,0.00
2013-5-30,77,67,60,68,63,59,97,87,58,0.00,40.00,21,13,30,0.01
2013-5-31,68,64,54,63,58,52,97,81,63,0.00,40.00,24,10,32,0.01
2013-6-1,56,51,46,54,46,43,96,82,62,0.00,40.00,32,21,37,0.00
2013-6-2,64,53,40,45,40,34,95,65,32,0.00,40.00,12,8,21,0.00
2013-6-3,64,55,39,45,37,32,90,53,32,0.00,40.00,15,8,21,0.00
2013-6-4,65,56,51,57,50,45,97,83,55,0.00,40.00,20,13,28,0.02
2013-6-5,65,58,52,55,52,48,97,81,59,0.00,40.00,21,13,27,0.01
2013-6-6,72,59,42,54,46,41,98,65,35,0.00,40.00,11,4,16,0.00
2013-6-7,75,61,51,57,50,45,95,70,36,0.00,40.00,21,10,27,0.00
2013-6-8,73,61,54,54,51,48,93,72,41,0.00,40.00,16,10,23,0.00
2013-7-10,80,76,65,61,55,50,80,47,36,0.00,40.00,13,7,18,0.00
2013-7-11,85,72,54,66,60,54,95,68,48,0.00,40.00,21,12,32,0.00
2013-7-12,86,76,69,75,70,66,96,79,64,0.00,40.00,19,11,26,0.00
2013-7-13,88,77,64,75,69,63,96,79,48,0.00,40.00,13,4,17,0.00
2013-7-14,80,72,65,72,64,59,96,76,56,0.00,40.00,16,9,24,0.00
2013-7-15,79,70,62,72,66,59,94,84,69,0.00,40.00,19,8,26,0.00
2013-7-16,90,77,67,70,67,63,92,71,47,0.00,40.00,17,10,26,0.00
2013-7-17,83,73,64,66,62,57,96,69,49,0.00,40.00,12,7,18,0.00
2013-7-18,87,76,65,77,69,61,93,79,58,0.00,40.00,14,-3,21,0.00
2013-7-19,82,71,63,70,62,57,96,73,42,0.00,40.00,19,10,28,0.00
2013-7-22,70,65,53,59,56,52,96,74,62,0.00,40.00,19,12,26,0.00
2013-7-23,74,62,49,57,53,48,97,75,44,0.00,40.00,8,4,9,0.00
2013-7-24,80,67,53,63,57,52,97,74,46,0.00,40.00,14,6,21,0.00
2013-7-25,77,66,56,63,56,48,96,73,37,0.00,40.00,26,10,31,0.00
2013-7-26,67,59,51,57,49,43,97,72,43,0.00,40.00,22,15,30,0.00
2013-7-27,70,58,46,52,47,43,97,69,40,0.00,40.00,18,-2,27,0.00
2013-7-28,77,61,42,55,46,41,97,64,32,0.00,40.00,7,3,11,0.00
2013-7-29,78,63,49,61,52,46,94,70,42,0.00,40.00,16,8,21,0.00
2013-7-30,76,67,59,63,60,57,97,79,57,0.00,40.00,11,6,14,0.00
2013-7-31,74,65,55,61,52,48,96,66,41,0.00,40.00,17,10,24,0.00
2013-8-1,79,65,52,57,53,50,95,69,37,0.00,40.00,18,8,24,0.00
2013-8-2,75,62,49,57,51,48,97,71,39,0.00,40.00,16,7,21,0.00
2013-8-3,75,64,50,54,49,45,97,63,34,0.00,40.00,12,6,22,0.00
2013-8-4,76,63,47,57,51,46,94,67,41,0.00,40.00,14,7,17,0.00
2013-8-5,75,63,58,59,57,52,97,82,44,0.00,40.00,11,7,15,0.00
2013-8-6,69,61,47,64,57,46,95,86,66,0.00,40.00,18,8,24,0.00
2013-8-7,72,61,45,59,52,45,98,75,44,0.00,40.00,10,4,16,0.00
2013-8-8,72,61,43,59,53,43,98,76,50,0.00,40.00,16,5,20,0.00
2013-8-9,67,60,48,59,52,46,93,76,58,0.00,40.00,14,8,21,0.00
2013-8-10,76,64,44,57,52,43,97,67,43,0.00,40.00,7,3,12,0.00
2013-8-11,77,66,57,59,55,52,96,71,41,0.00,40.00,12,6,18,0.00
2013-9-26,76,73,61,57,56,52,68,55,51,0.00,40.00,18,14,26,0.00
2013-9-27,51,50,50,48,48,48,95,92,91,0.00,40.00,12,12,15,0.00
2013-9-28,57,28,57,48,-26,-100,70,35,70,0.00,40.00,9,8,11,0.00
2013-9-29,63,57,46,50,46,41,85,68,59,0.00,40.00,14,10,21,0.00
2013-9-30,71,65,54,50,44,39,82,48,32,0.00,40.00,9,7,12,0.00
2013-10-1,56,53,52,36,34,34,52,48,43,0.00,40.00,6,5,7,0.00
2013-10-2,46,44,42,45,39,36,93,85,78,0.00,40.00,6,4,8,0.00
2013-10-27,43,36,28,28,25,18,75,65,57,0.00,40.00,26,19,31,0.00
2013-10-28,34,25,18,19,12,-100,84,65,46,0.00,40.00,13,9,20,0.00
2013-10-29,38,30,18,23,19,14,85,64,46,0.00,40.00,7,3,7,0.00
2013-10-30,37,37,36,36,35,32,95,91,81,0.00,40.00,6,4,8,0.00
2013-10-31,47,40,34,37,33,28,89,76,65,0.00,40.00,11,6,13,0.00
2013-11-1,45,36,30,34,30,27,90,78,58,0.00,40.00,20,7,23,0.00
2013-11-2,50,36,29,32,24,-100,95,73,45,0.00,40.00,11,5,12,0.00
2013-11-8,42,34,19,32,26,16,91,72,49,0.00,40.00,24,12,32,0.00
2013-11-9,36,33,32,32,22,-100,95,75,70,0.00,40.00,27,18,32,0.00
2013-11-10,37,22,14,27,16,7,88,75,64,0.00,40.00,21,15,27,0.01
2013-11-11,16,12,4,7,3,0,81,68,58,0.00,40.00,21,10,27,0.01
2013-11-12,37,23,6,19,11,-2,73,61,47,0.00,40.00,20,14,26,0.00
2013-11-13,52,42,23,36,29,18,84,62,45,0.00,40.00,20,10,27,0.00
2013-11-14,34,34,34,28,28,28,82,81,81,0.00,40.00,7,6,7,0.00
2013-11-19,43,32,21,32,24,18,83,73,64,0.00,40.00,22,15,29,0.00
2013-11-20,29,24,14,25,17,10,86,76,70,0.00,40.00,27,20,32,0.01
2013-11-21,14,8,2,10,1,-6,84,73,66,0.00,40.00,28,14,34,0.02
2013-11-22,17,8,0,12,1,-8,84,72,65,0.00,40.00,21,-62,27,0.00
2013-11-23,6,1,-9,-2,-10,-100,75,66,58,0.00,40.00,15,8,22,0.00
2013-11-24,34,21,6,27,13,0,73,71,69,0.00,40.00,28,18,37,0.00
2013-11-25,34,26,22,27,20,14,84,76,69,0.00,40.00,26,20,35,0.00
2013-11-27,20,20,19,14,11,9,80,66,59,0.00,40.00,24,11,29,0.00
2013-11-28,19,9,1,14,4,-4,83,79,71,0.00,40.00,19,8,24,0.00
2013-11-29,31,21,5,18,12,0,82,70,57,0.00,40.00,22,11,28,0.00
2013-11-30,24,20,19,19,15,-100,89,83,77,0.00,40.00,13,9,16,0.00
2013-12-1,21,20,18,18,17,16,89,87,85,0.00,40.00,14,8,17,0.00
2013-12-2,26,23,21,23,20,18,89,87,85,0.00,40.00,15,14,19,0.00
2013-12-6,-9,-12,-16,-18,-22,-26,65,63,61,0.00,40.00,9,6,11,0.00
2013-12-7,-8,-14,-21,-20,-25,-100,64,59,53,0.00,40.00,13,9,16,0.00
2013-12-8,0,-5,-22,-6,-12,-31,77,71,63,0.00,40.00,11,7,15,0.00
2013-12-9,-4,-8,-14,-9,-17,-22,76,63,55,0.00,40.00,16,11,20,0.00
2013-12-10,1,-7,-13,-8,-15,-20,75,69,63,0.00,40.00,13,8,17,0.00
2013-12-14,-200,0,200,-100,-100,-100,0,0,100,0.00,40.00,9,9,12,0.00
2013-12-20,0,0,0,-6,-6,-6,78,78,78,0.00,40.00,4,4,4,0.00
2013-12-21,0,0,0,-6,-6,-6,78,78,78,0.00,40.00,4,4,4,0.00